BST,Max TemperatureF,Mean TemperatureF,Min TemperatureF,Max Dew PointF,MeanDew PointF,Min DewpointF,Max Humidity, Mean Humidity, Min Humidity, Max Sea Level PressureIn, Mean Sea Level PressureIn, Min Sea Level PressureIn, Max VisibilityMiles, Mean VisibilityMiles, Min VisibilityMiles, Max Wind SpeedMPH, Mean Wind SpeedMPH, Max Gust SpeedMPH,PrecipitationIn, CloudCover, Events, WindDirDegrees
2013-7-1,64,58,51,46,42,39,82,54,40,29.95,29.92,29.92,6,6,6,17,11,,0.00,2,,253
2013-7-2,62,56,50,54,50,45,88,78,59,29.86,29.71,29.53,6,6,4,20,13,,0.00,2,Rain,177
2013-7-3,66,62,57,57,54,50,94,72,56,29.89,29.71,29.53,6,6,4,15,9,,0.00,4,Rain,250
2013-7-4,69,62,55,57,53,48,88,66,49,30.15,29.97,29.86,6,6,6,25,15,32,0.00,2,,230
2013-7-5,73,62,51,55,51,48,88,59,47,30.39,30.35,30.27,6,6,6,14,8,,0.00,1,,223
2013-7-6,78,68,57,59,55,52,88,60,41,30.42,30.37,30.33,6,6,4,16,8,,0.00,2,,225
2013-7-7,75,63,51,61,56,46,82,65,57,30.57,30.52,30.45,6,6,6,13,6,,0.00,2,,38
2013-7-8,71,64,57,59,56,54,94,77,60,30.63,30.58,30.51,6,4,1,8,6,,0.00,3,,24
2013-7-9,84,70,55,63,58,52,94,64,45,30.45,30.37,30.30,6,6,6,17,7,,0.00,1,,51
2013-7-10,62,60,55,55,53,50,88,78,72,30.39,30.38,30.36,6,6,6,12,10,,0.00,6,,37
2013-7-11,66,60,55,55,52,48,88,75,64,30.36,30.33,30.30,6,4,3,8,6,,0.00,4,,30
2013-7-12,84,70,55,64,59,52,88,64,40,30.27,30.23,30.18,6,4,2,13,6,,0.00,1,,255
2013-7-13,77,68,60,61,59,55,88,67,53,30.30,30.26,30.24,6,5,2,16,7,,0.00,1,,37
2013-7-14,77,68,60,59,53,46,94,57,36,30.27,30.21,30.15,6,4,1,13,6,,0.00,3,,255
2013-7-15,77,67,57,59,53,43,72,55,45,30.21,30.19,30.18,6,6,6,18,9,,0.00,1,,233
2013-7-16,80,68,55,61,57,52,88,57,45,30.21,30.19,30.15,6,6,6,12,6,,0.00,1,,188
2013-7-17,80,71,62,55,52,50,77,49,34,30.33,30.29,30.27,6,6,6,9,5,,0.00,1,,343
2013-7-18,82,70,59,59,56,54,82,53,39,30.36,30.34,30.33,6,6,6,10,5,,0.00,1,,35
2013-7-19,77,68,60,63,60,57,88,70,57,30.36,30.36,30.33,6,6,5,16,7,,0.00,2,,37
2013-7-20,68,65,62,61,58,55,88,78,68,30.36,30.31,30.27,6,6,4,14,8,,0.00,6,,46
2013-7-21,68,64,59,57,55,52,77,73,64,30.24,30.18,30.12,6,6,5,15,8,,0.00,6,,67
2013-7-22,73,66,59,61,57,54,88,77,65,30.09,30.05,30.01,6,5,4,14,5,,0.00,4,,55
2013-7-23,75,68,60,64,61,59,94,80,61,29.98,29.92,29.89,6,4,1,12,6,,0.00,4,Rain-Thunderstorm,147
2013-7-24,77,70,64,63,59,55,88,63,47,29.92,29.89,29.86,6,5,2,10,6,,0.00,3,,235
2013-7-25,75,68,62,63,59,55,94,69,50,29.86,29.83,29.80,6,6,4,14,8,,0.00,3,Rain-Thunderstorm,186
2013-7-26,77,67,57,57,52,46,94,55,34,29.86,29.86,29.83,6,6,6,13,7,,0.00,2,,233
2013-7-27,77,65,53,61,56,50,88,63,47,29.86,29.76,29.65,6,6,6,14,6,,0.00,2,,76
2013-7-28,73,66,59,61,56,52,94,72,47,29.68,29.56,29.42,6,6,2,24,16,34,0.00,3,Rain,233
2013-7-29,73,66,60,61,58,54,88,77,50,29.77,29.70,29.65,6,6,2,20,12,,0.00,2,Rain-Thunderstorm,198
2013-7-30,71,64,57,57,51,46,94,62,41,29.83,29.80,29.77,6,6,5,18,12,,0.00,2,Rain,226
2013-7-31,69,62,55,59,54,48,94,71,46,29.89,29.87,29.83,6,5,1,13,7,,0.00,4,Rain,198